Aérodrome :
LOGIN :

S'inscrire | Disclaimer

   EN    FR    IT 

 










Légende :    VFR   VFR Marginal   IFR   IFR Intensif   IFR Très Intensif
Visi : 
Plafond : 
>= 8 km
>= 3000ft
5 à 8 km
1000 à 3000 ft
1500m à 5 km
500 à 1000 ft
800 à 1500m
200 à 500 ft
< 800m
< 200 ft
Symboles :   Orages  Brouillard  Fortes neiges  Fortes précipitations  Vent > 20 kt
SIGMETs :   Divers  Orages  Givrage  Turbulence  Onde Orograph.  Cendres Volcan.






- Altitude de l'aérodrome : 20 ft
- Code IATA : TIV


LYTV - Tivat - Montenegro

DERNIER METAR :
  • 290630Z 00000KT CAVOK 09/09 Q1012 NOSIG

METARs EXPIRÉS :
  • 290600Z 09002KT CAVOK 05/05 Q1012 NOSIG
  • 290530Z VRB02KT 9999 4000SE BR NSC 04/03 Q1012 NOSIG
  • 290500Z VRB01KT 9999 3000SE BR NSC 03/03 Q1012 NOSIG
  • 290430Z VRB01KT 4000 1500SE BR NSC 04/03 Q1012 NOSIG
  • 290400Z VRB01KT 9999 4000SE BR NSC 04/04 Q1012 NOSIG

TAF TAF LYTV
Valide du 29 à 06h jusqu'au 30 à 06h UTC


290500Z 2906/3006 25006KT CAVOK TX16/2912Z TN03/3003Z
PROB30
TEMPO 2906/2907 3000 BR



MET'MAP, la Météo Aéronautique d'un coup d'oeil ! - Copyright ORBIFLY Décembre 2007 - Disclaimer

ORBIFLY MET'MAP TEAM :

Programmation & Développement : Alexandra Zaïnal
Sur une idée originale de : Baudouin d'Aumeries
Assistance à la programmation : Marc-Olivier Méhu
Soutien technique & logistique : Manuel Goepfert

Contact : metmap@orbifly.com




SOURCES & CREDITS :

   NOAA